Terminal Aerodrome Forecast
Issued by NWS

Home | Current Version | Previous Version | Text Only | Print | Product List | Glossary On
Versions: 1 2 3 4 5 6 7 8 9 10 11 12 13 14 15 16 17 18 19 20 21
000
FTUS46 KLOX 011701 AAC
TAFSBA
TAF AMD
KSBA 011701Z 0117/0212 15007KT P6SM BKN009
     FM011930 23007KT P6SM SKC
     FM020200 VRB03KT P6SM SKC
     FM021100 VRB03KT P6SM BKN007=

USA.gov is the U.S. government's official web portal to all federal, state and local government web resources and services.